createdAt,value
2022-12-28T00:03:29.062Z,4.62
2022-12-28T00:08:25.296Z,10.78
2022-12-28T00:13:21.556Z,12.360000000000001
2022-12-28T00:18:17.821Z,14.940000000000001
2022-12-28T00:23:14.085Z,5.6
2022-12-28T00:28:10.312Z,5.5
2022-12-28T00:33:06.606Z,4.18
2022-12-28T00:38:02.877Z,6.3
2022-12-28T00:42:59.086Z,3.6
2022-12-28T00:47:55.343Z,2.24
2022-12-28T00:52:51.630Z,3
2022-12-28T00:57:47.915Z,4.18
2022-12-28T01:02:44.204Z,3.16
2022-12-28T01:07:40.404Z,3
2022-12-28T01:12:38.492Z,3.0800000000000005
2022-12-28T01:17:34.919Z,2.74
2022-12-28T01:22:31.175Z,2.2
2022-12-28T01:27:27.456Z,1.78
2022-12-28T01:32:23.741Z,1.9599999999999997
2022-12-28T01:37:19.980Z,2.04
2022-12-28T01:42:17.194Z,2.9
2022-12-28T01:47:17.477Z,3.78
2022-12-28T01:52:20.721Z,3.88
2022-12-28T01:57:18.960Z,4.4399999999999995
2022-12-28T02:02:15.374Z,4.26
2022-12-28T02:07:12.505Z,3.2
2022-12-28T02:12:11.775Z,2.2800000000000002
2022-12-28T02:17:09.123Z,2.44
2022-12-28T02:22:19.212Z,3.04
2022-12-28T02:27:24.452Z,2.94
2022-12-28T02:32:27.691Z,2.8
2022-12-28T02:37:26.991Z,3.0799999999999996
2022-12-28T02:42:24.221Z,5.94
2022-12-28T02:47:20.487Z,4.76
2022-12-28T02:57:39.934Z,3.2399999999999998
2022-12-28T03:02:54.276Z,4.0200000000000005
2022-12-28T03:08:00.335Z,2.92
2022-12-28T03:13:02.647Z,2.56
2022-12-28T03:18:02.851Z,2.38
2022-12-28T03:23:03.089Z,3.0799999999999996
2022-12-28T03:28:01.355Z,3.04
2022-12-28T03:32:57.653Z,2.44
2022-12-28T03:37:59.864Z,2.42
2022-12-28T03:43:02.120Z,1.7
2022-12-28T03:48:01.384Z,3.2
2022-12-28T03:52:57.644Z,2.2600000000000002
2022-12-28T03:57:53.903Z,2.94
2022-12-28T04:02:50.273Z,2.94
2022-12-28T04:07:46.403Z,2.54
2022-12-28T04:12:42.676Z,5.82
2022-12-28T04:17:38.966Z,6.68
2022-12-28T04:22:35.157Z,3.4
2022-12-28T04:27:31.446Z,4.24
2022-12-28T04:32:28.679Z,3.9799999999999995
2022-12-28T04:37:25.954Z,4.96
2022-12-28T04:42:22.235Z,8.219999999999999
2022-12-28T04:47:18.481Z,7.8
2022-12-28T04:52:14.734Z,7.460000000000001
2022-12-28T04:57:10.996Z,6.220000000000001
2022-12-28T05:02:07.348Z,8.059999999999999
2022-12-28T05:07:03.534Z,6
2022-12-28T05:11:59.787Z,5.62
2022-12-28T05:16:57.014Z,8.44
2022-12-28T05:21:54.309Z,7.779999999999999
2022-12-28T05:26:50.533Z,9.92
2022-12-28T05:31:47.832Z,13.680000000000001
2022-12-28T05:36:45.101Z,13.219999999999999
2022-12-28T05:41:43.323Z,39.42
2022-12-28T05:46:45.666Z,57.980000000000004
2022-12-28T05:51:42.823Z,30.54
2022-12-28T05:56:40.086Z,22.22
2022-12-28T06:01:38.550Z,17
2022-12-28T06:06:35.613Z,11.92
2022-12-28T06:11:32.841Z,20.240000000000002
2022-12-28T06:16:30.164Z,19.32
2022-12-28T06:21:27.369Z,16.6
2022-12-28T06:26:23.593Z,16.139999999999997
2022-12-28T06:31:20.967Z,13.459999999999999
2022-12-28T06:36:20.522Z,14.6
2022-12-28T06:41:18.405Z,29.159999999999997
2022-12-28T06:46:15.643Z,26.559999999999995
2022-12-28T06:51:12.902Z,22.060000000000002
2022-12-28T06:56:10.157Z,18.22
2022-12-28T07:01:07.594Z,22.26
2022-12-28T07:06:04.683Z,23.68
2022-12-28T07:11:02.912Z,34.739999999999995
2022-12-28T07:16:01.185Z,33.82
2022-12-28T07:20:59.436Z,27.939999999999998
2022-12-28T07:25:55.720Z,29.660000000000004
2022-12-28T07:30:52.961Z,28.560000000000002
2022-12-28T07:35:49.202Z,24.639999999999997
2022-12-28T07:40:45.492Z,18.259999999999998
2022-12-28T07:45:42.299Z,21.419999999999998
2022-12-28T07:50:38.983Z,13.3
2022-12-28T07:55:35.287Z,16.6
2022-12-28T08:00:32.502Z,13.260000000000002
2022-12-28T08:05:28.732Z,32.8
2022-12-28T08:10:25.161Z,15.059999999999999
2022-12-28T08:15:21.323Z,12.48
2022-12-28T08:20:17.518Z,15.5
2022-12-28T08:25:13.791Z,10.66
2022-12-28T08:30:11.038Z,14.1
2022-12-28T08:35:07.329Z,15.16
2022-12-28T08:49:29.227Z,28.78
2022-12-28T08:54:25.463Z,28.619999999999997
2022-12-28T08:59:21.689Z,21.56
2022-12-28T09:04:20.966Z,13.4
2022-12-28T09:09:20.655Z,17.3
2022-12-28T09:14:22.117Z,13.14
2022-12-28T09:19:18.705Z,16.8
2022-12-28T09:24:14.946Z,11.379999999999999
2022-12-28T09:29:12.359Z,27.939999999999998
2022-12-28T09:34:37.310Z,31.839999999999996
2022-12-28T09:39:11.788Z,19.66
2022-12-28T09:44:24.088Z,10.08
2022-12-28T09:49:27.179Z,17.68
2022-12-28T09:54:24.446Z,10.6
2022-12-28T09:59:22.691Z,4.74
2022-12-28T10:04:18.921Z,5.48
2022-12-28T10:09:19.183Z,8.2
2022-12-28T10:14:19.996Z,23.46
2022-12-28T10:19:16.697Z,12.8
2022-12-28T10:24:31.447Z,19.84
2022-12-28T10:29:23.874Z,7.2
2022-12-28T10:34:22.388Z,7.959999999999999
2022-12-28T10:39:23.679Z,4.840000000000001
2022-12-28T10:44:39.844Z,6.56
2022-12-28T10:49:28.147Z,7.459999999999999
2022-12-28T10:54:28.279Z,7.359999999999999
2022-12-28T10:59:32.687Z,5.04
2022-12-28T11:04:42.455Z,9.14
2022-12-28T11:09:47.132Z,10.28
2022-12-28T11:14:48.660Z,8.120000000000001
2022-12-28T11:19:46.588Z,6.74
2022-12-28T11:24:43.880Z,6.639999999999999
2022-12-28T11:29:45.147Z,13.419999999999998
2022-12-28T11:34:51.165Z,5.38
2022-12-28T11:39:57.628Z,4.34
2022-12-28T11:44:55.406Z,7.3
2022-12-28T11:50:03.109Z,7.94
2022-12-28T11:55:15.316Z,6.000000000000001
2022-12-28T12:00:26.672Z,6.000000000000001
2022-12-28T12:05:34.713Z,7.62
2022-12-28T12:10:41.007Z,4.86
2022-12-28T12:15:44.219Z,5.5
2022-12-28T12:20:51.311Z,7.159999999999999
2022-12-28T12:25:53.728Z,11.68
2022-12-28T12:30:51.004Z,8.8
2022-12-28T12:35:54.176Z,9.120000000000001
2022-12-28T12:41:02.470Z,94.32000000000001
2022-12-28T12:46:11.742Z,15.819999999999999
2022-12-28T12:51:21.919Z,17.419999999999998
2022-12-28T12:56:29.266Z,8.8
2022-12-28T13:01:35.473Z,6.119999999999999
2022-12-28T13:06:34.427Z,4.9799999999999995
2022-12-28T13:11:35.855Z,6.92
2022-12-28T13:16:34.165Z,6.4799999999999995
2022-12-28T13:21:36.800Z,9.28
2022-12-28T13:26:41.633Z,10.8
2022-12-28T13:31:40.858Z,13.959999999999999
2022-12-28T13:36:47.564Z,15.120000000000001
2022-12-28T13:41:52.333Z,7.58
2022-12-28T13:46:52.632Z,42.14
2022-12-28T13:51:53.517Z,11.9
2022-12-28T13:57:03.380Z,12.959999999999999
2022-12-28T14:02:03.416Z,10.98
2022-12-28T14:06:59.868Z,6.32
2022-12-28T14:11:55.824Z,8.580000000000002
2022-12-28T14:16:52.080Z,8.78
2022-12-28T14:21:48.383Z,12.059999999999999
2022-12-28T14:26:50.617Z,13.120000000000001
2022-12-28T14:31:54.987Z,10.52
2022-12-28T14:36:53.078Z,12.66
2022-12-28T14:41:51.327Z,18.48
2022-12-28T14:46:48.593Z,14.16
2022-12-28T14:51:54.915Z,18.24
2022-12-28T14:56:53.121Z,23.419999999999998
2022-12-28T15:01:49.693Z,28.9
2022-12-28T15:06:45.606Z,34.54
2022-12-28T15:11:42.268Z,27.68
2022-12-28T15:16:44.245Z,28.619999999999997
2022-12-28T15:21:40.399Z,45.519999999999996
2022-12-28T15:26:37.604Z,42.96
2022-12-28T15:31:40.381Z,63.7
2022-12-28T15:36:40.060Z,99.1
2022-12-28T15:41:42.400Z,81.8
2022-12-28T15:46:42.683Z,95.22
2022-12-28T15:51:45.405Z,76.03999999999999
2022-12-28T15:56:52.127Z,106
2022-12-28T16:01:49.718Z,172.76
2022-12-28T16:06:47.349Z,109.04
2022-12-28T16:11:54.683Z,79.46
2022-12-28T16:16:51.085Z,66.74
2022-12-28T16:21:52.355Z,57.14
2022-12-28T16:26:55.201Z,56.04
2022-12-28T16:32:02.952Z,46.5
2022-12-28T16:36:59.120Z,39.260000000000005
2022-12-28T16:41:56.627Z,52.17999999999999
2022-12-28T16:46:55.593Z,70.23999999999998
2022-12-28T16:51:51.874Z,48.17999999999999
2022-12-28T16:56:53.135Z,47.74000000000001
2022-12-28T17:01:54.589Z,34.38
2022-12-28T17:06:51.594Z,39.46
2022-12-28T17:11:47.860Z,31.32
2022-12-28T17:16:44.225Z,33.120000000000005
2022-12-28T17:21:40.433Z,35.8
2022-12-28T17:26:36.696Z,39.160000000000004
2022-12-28T17:31:36.886Z,35.46
2022-12-28T17:46:51.584Z,35.480000000000004
2022-12-28T17:51:55.399Z,31.76
2022-12-28T17:56:52.089Z,34.44
2022-12-28T18:01:49.536Z,28.160000000000004
2022-12-28T18:06:45.703Z,39.38
2022-12-28T18:11:51.849Z,43.8
2022-12-28T18:16:49.683Z,79.8
2022-12-28T18:21:47.383Z,72.03999999999999
2022-12-28T18:26:52.004Z,67.1
2022-12-28T18:31:51.871Z,59.36
2022-12-28T18:36:52.522Z,61.64
2022-12-28T18:41:50.522Z,56.86
2022-12-28T18:46:46.706Z,50.46
2022-12-28T18:51:47.905Z,41.67999999999999
2022-12-28T18:56:50.087Z,39.12
2022-12-28T19:02:07.104Z,38.82
2022-12-28T19:06:55.555Z,35.220000000000006
2022-12-28T19:11:51.855Z,20.9
2022-12-28T19:16:49.198Z,25.7
2022-12-28T19:21:58.683Z,26.48
2022-12-28T19:26:56.599Z,15.48
2022-12-28T19:31:57.141Z,15.7
2022-12-28T19:36:57.496Z,19.32
2022-12-28T19:41:55.355Z,15.3
2022-12-28T19:46:57.066Z,12.6
2022-12-28T19:51:58.285Z,11.4
2022-12-28T20:02:00.449Z,16.22
2022-12-28T20:07:03.162Z,16.16
2022-12-28T20:12:00.851Z,13.319999999999999
2022-12-28T20:17:07.488Z,13.52
2022-12-28T20:22:07.301Z,13.280000000000001
2022-12-28T20:27:03.569Z,13.319999999999999
2022-12-28T20:31:59.866Z,18.5
2022-12-28T20:36:57.437Z,24.24
2022-12-28T20:41:58.358Z,16.12
2022-12-28T20:46:58.634Z,16.86
2022-12-28T20:51:54.864Z,24.36
2022-12-28T20:56:55.524Z,32.720000000000006
2022-12-28T21:01:56.491Z,46
2022-12-28T21:06:56.950Z,40.379999999999995
2022-12-28T21:11:56.864Z,39.92
2022-12-28T21:16:55.177Z,48.480000000000004
2022-12-28T21:21:52.345Z,61.8
2022-12-28T21:26:52.622Z,60.3
2022-12-28T21:31:54.478Z,62.739999999999995
2022-12-28T21:36:57.083Z,89.64
2022-12-28T21:41:53.358Z,30.7
2022-12-28T21:46:59.019Z,40.14
2022-12-28T21:52:01.880Z,32.660000000000004
2022-12-28T21:57:05.310Z,37.4
2022-12-28T22:02:03.999Z,33.06
2022-12-28T22:07:09.445Z,35.99999999999999
2022-12-28T22:12:08.815Z,80.48
2022-12-28T22:17:14.458Z,44.4
2022-12-28T22:22:15.892Z,18.84
2022-12-28T22:32:17.840Z,11.219999999999999
2022-12-28T22:37:15.429Z,10.6
2022-12-28T22:42:11.293Z,10.08
2022-12-28T22:47:08.570Z,10.379999999999999
2022-12-28T22:52:04.863Z,11.12
2022-12-28T22:57:01.085Z,13.84
2022-12-28T23:01:57.551Z,25.96
2022-12-28T23:06:56.321Z,22.54
2022-12-28T23:17:00.308Z,15.780000000000001
2022-12-28T23:21:56.508Z,14.64
2022-12-28T23:26:52.612Z,7.6
2022-12-28T23:31:48.864Z,9.679999999999998
2022-12-28T23:36:45.087Z,10.5
2022-12-28T23:41:41.431Z,8.059999999999999
2022-12-28T23:46:37.697Z,6.659999999999999
2022-12-28T23:51:35.897Z,7.4
2022-12-28T23:56:32.159Z,6.68
